Time;durP1;ratioP1;P1;durP2;ratioP2;P2;SDS_P1;SDS_P2;PMS_P1;PMS_P2;Temp;Humidity;BMP_temperature;BMP_pressure;BME280_temperature;BME280_humidity;BME280_pressure;Samples;Min_cycle;Max_cycle;Signal;HPM_P1;HPM_P2
2023/12/24 00:01:34;;;;;;;0.85;0.80;;;;;;;10.71;100.00;100428.25;5282080;27;20043;-48
2023/12/24 00:04:07;;;;;;;3.00;1.00;;;;;;;10.70;100.00;100423.88;5285410;27;20520;-49
2023/12/24 00:06:40;;;;;;;1.02;0.68;;;;;;;10.75;100.00;100427.47;5286268;27;20405;-50
2023/12/24 00:09:14;;;;;;;1.92;0.73;;;;;;;10.71;100.00;100425.63;5251616;28;20063;-49
2023/12/24 00:11:46;;;;;;;1.23;0.95;;;;;;;10.69;100.00;100424.69;5236871;28;20056;-49
2023/12/24 00:14:19;;;;;;;1.15;0.90;;;;;;;10.69;100.00;100432.50;5224767;28;20051;-49
2023/12/24 00:16:52;;;;;;;2.65;0.63;;;;;;;10.68;100.00;100441.16;5220602;28;20045;-49
2023/12/24 00:19:24;;;;;;;0.85;0.60;;;;;;;10.67;100.00;100439.41;5246242;28;20048;-49
2023/12/24 00:21:57;;;;;;;2.05;0.82;;;;;;;10.67;100.00;100439.41;5224258;28;20056;-49
2023/12/24 00:24:31;;;;;;;2.17;0.63;;;;;;;10.67;100.00;100429.88;5225995;28;20139;-47
2023/12/24 00:27:04;;;;;;;3.50;1.08;;;;;;;10.67;100.00;100428.97;5219748;28;20060;-48
2023/12/24 00:29:37;;;;;;;0.68;0.68;;;;;;;10.69;100.00;100425.56;5219125;28;20048;-49
2023/12/24 00:32:09;;;;;;;1.02;0.52;;;;;;;10.69;100.00;100417.75;5226959;28;20052;-49
2023/12/24 00:34:42;;;;;;;0.60;0.43;;;;;;;10.69;100.00;100432.50;5230523;28;20041;-49
2023/12/24 00:37:15;;;;;;;1.75;0.52;;;;;;;10.69;100.00;100430.78;5224318;28;20041;-49
2023/12/24 00:39:49;;;;;;;0.85;0.43;;;;;;;10.71;100.00;100423.91;5239165;28;20887;-49
2023/12/24 00:42:23;;;;;;;0.70;0.63;;;;;;;10.71;100.00;100412.59;5219631;28;20688;-49
2023/12/24 00:44:55;;;;;;;1.35;0.63;;;;;;;10.70;100.00;100422.16;5224073;28;20076;-48
2023/12/24 00:47:28;;;;;;;0.55;0.55;;;;;;;10.71;100.00;100420.41;5232071;28;20041;-49
2023/12/24 00:50:01;;;;;;;0.50;0.50;;;;;;;10.73;100.00;100421.34;5230701;28;20127;-48
2023/12/24 00:52:33;;;;;;;1.05;0.65;;;;;;;10.73;100.00;100413.50;5217382;28;20069;-49
2023/12/24 00:55:08;;;;;;;0.30;0.30;;;;;;;10.73;100.00;100418.72;5218057;28;20526;-48
2023/12/24 00:57:41;;;;;;;0.60;0.60;;;;;;;10.73;100.00;100413.50;5225741;28;20048;-48
2023/12/24 01:00:14;;;;;;;0.82;0.32;;;;;;;10.72;100.00;100411.75;5225355;28;20056;-49
2023/12/24 01:02:47;;;;;;;0.32;0.32;;;;;;;10.73;100.00;100413.50;5225460;28;20494;-48
2023/12/24 01:05:20;;;;;;;0.63;0.40;;;;;;;10.71;100.00;100410.88;5227544;28;20044;-49
2023/12/24 01:07:52;;;;;;;0.47;0.43;;;;;;;10.69;100.00;100412.53;5226661;28;20599;-49
2023/12/24 01:10:26;;;;;;;0.65;0.52;;;;;;;10.68;100.00;100404.69;5243247;28;20098;-49
2023/12/24 01:12:59;;;;;;;0.38;0.30;;;;;;;10.69;100.00;100406.44;5217945;28;20064;-50
2023/12/24 01:15:32;;;;;;;0.60;0.57;;;;;;;10.71;100.00;100412.59;5228031;28;20504;-49
2023/12/24 01:18:05;;;;;;;0.40;0.40;;;;;;;10.71;100.00;100420.41;5221970;28;20055;-49
2023/12/24 01:20:38;;;;;;;0.63;0.50;;;;;;;10.70;100.00;100418.66;5226762;28;20414;-49
2023/12/24 01:23:10;;;;;;;0.98;0.50;;;;;;;10.71;100.00;100416.09;5214938;28;20092;-49
2023/12/24 01:25:44;;;;;;;0.38;0.35;;;;;;;10.71;100.00;100412.59;5220520;28;20044;-48
2023/12/24 01:28:17;;;;;;;0.40;0.25;;;;;;;10.70;100.00;100411.72;5215216;28;20518;-49
2023/12/24 01:30:49;;;;;;;0.30;0.20;;;;;;;10.70;100.00;100413.44;5226650;28;20439;-49
2023/12/24 01:33:22;;;;;;;0.30;0.30;;;;;;;10.70;100.00;100410.84;5216524;28;20048;-49
2023/12/24 01:35:55;;;;;;;1.00;0.30;;;;;;;10.68;100.00;100413.38;5217331;28;20049;-49
2023/12/24 01:38:27;;;;;;;0.40;0.32;;;;;;;10.70;100.00;100418.66;5225027;28;20057;-48
2023/12/24 01:41:01;;;;;;;0.60;0.60;;;;;;;10.70;100.00;100423.88;5217286;28;20674;-49
2023/12/24 01:43:34;;;;;;;0.25;0.25;;;;;;;10.70;100.00;100423.88;5222017;28;20142;-48
2023/12/24 01:46:07;;;;;;;0.22;0.22;;;;;;;10.68;100.00;100417.72;5236167;28;20043;-48
2023/12/24 01:48:40;;;;;;;0.20;0.20;;;;;;;10.68;100.00;100425.53;5212737;28;20049;-48
2023/12/24 01:51:13;;;;;;;0.60;0.30;;;;;;;10.69;100.00;100417.75;5234201;28;20118;-48
2023/12/24 01:53:47;;;;;;;0.43;0.40;;;;;;;10.68;100.00;100421.19;5222036;28;20041;-48
2023/12/24 01:56:23;;;;;;;0.30;0.30;;;;;;;10.69;100.00;100406.44;5219004;28;20040;-48
2023/12/24 01:58:56;;;;;;;0.57;0.22;;;;;;;10.70;100.00;100403.91;5218964;28;20037;-48
2023/12/24 02:01:29;;;;;;;0.30;0.30;;;;;;;10.67;100.00;100403.78;5239037;28;20554;-49
2023/12/24 02:04:02;;;;;;;0.30;0.30;;;;;;;10.68;100.00;100395.13;5220854;28;20048;-49
2023/12/24 02:06:35;;;;;;;0.25;0.25;;;;;;;10.69;100.00;100396.88;5218061;28;20512;-49
2023/12/24 02:09:08;;;;;;;0.88;0.22;;;;;;;10.70;100.00;100389.97;5217117;28;20054;-48
2023/12/24 02:11:42;;;;;;;0.25;0.25;;;;;;;10.66;100.00;100380.31;5226651;28;20052;-48
2023/12/24 02:14:15;;;;;;;0.15;0.15;;;;;;;10.66;100.00;100357.72;5210797;28;20064;-49
2023/12/24 02:16:48;;;;;;;0.22;0.22;;;;;;;10.67;100.00;100350.78;5217295;28;20044;-48
2023/12/24 02:19:21;;;;;;;0.40;0.40;;;;;;;10.66;100.00;100341.19;5227222;28;20055;-49
2023/12/24 02:21:55;;;;;;;0.43;0.30;;;;;;;10.67;100.00;100340.34;5224245;28;20497;-49
2023/12/24 02:24:28;;;;;;;0.57;0.30;;;;;;;10.67;100.00;100329.94;5221921;28;20148;-48
2023/12/24 02:27:05;;;;;;;0.32;0.32;;;;;;;10.67;100.00;100309.06;5228099;28;20063;-49
2023/12/24 02:29:43;;;;;;;0.25;0.25;;;;;;;10.69;100.00;100315.19;5236168;28;20052;-49
2023/12/24 02:32:16;;;;;;;0.52;0.40;;;;;;;10.69;100.00;100313.47;5241273;28;20059;-48
2023/12/24 02:34:49;;;;;;;0.20;0.20;;;;;;;10.69;100.00;100312.59;5233407;28;20048;-49
2023/12/24 02:37:23;;;;;;;0.40;0.40;;;;;;;10.71;100.00;100316.16;5227049;28;20047;-49
2023/12/24 02:39:56;;;;;;;0.20;0.20;;;;;;;10.72;100.00;100310.09;5228362;28;20094;-48
2023/12/24 02:42:29;;;;;;;0.50;0.50;;;;;;;10.73;100.00;100317.06;5240172;28;20175;-49
2023/12/24 02:45:02;;;;;;;0.30;0.30;;;;;;;10.75;100.00;100317.97;5235172;28;20106;-49
2023/12/24 02:47:37;;;;;;;0.28;0.28;;;;;;;10.76;100.00;100317.16;5233702;28;20040;-49
2023/12/24 02:50:10;;;;;;;0.40;0.28;;;;;;;10.77;100.00;100317.19;5228460;28;20059;-48
2023/12/24 02:52:44;;;;;;;0.20;0.20;;;;;;;10.78;100.00;100312.84;5242086;28;20039;-49
2023/12/24 02:55:17;;;;;;;0.20;0.20;;;;;;;10.78;100.00;100312.84;5246036;28;20138;-48
2023/12/24 02:57:49;;;;;;;0.25;0.22;;;;;;;10.79;100.00;100301.59;5225000;28;20052;-48
2023/12/24 03:00:23;;;;;;;0.20;0.20;;;;;;;10.80;100.00;100299.00;5222853;28;20531;-49
2023/12/24 03:02:55;;;;;;;0.20;0.20;;;;;;;10.83;100.00;100306.94;5227237;28;20048;-49
2023/12/24 03:05:28;;;;;;;0.20;0.20;;;;;;;10.85;100.00;100293.91;5233901;28;20054;-49
2023/12/24 03:08:02;;;;;;;0.20;0.10;;;;;;;10.82;100.00;100293.81;5227467;28;20040;-49
2023/12/24 03:10:35;;;;;;;0.20;0.10;;;;;;;10.83;100.00;100286.06;5227779;28;20050;-49
2023/12/24 03:13:07;;;;;;;0.20;0.20;;;;;;;10.86;100.00;100285.25;5245212;28;20345;-48
2023/12/24 03:15:40;;;;;;;0.30;0.30;;;;;;;10.88;100.00;100283.56;5226455;28;20387;-49
2023/12/24 03:18:13;;;;;;;0.90;0.25;;;;;;;10.89;100.00;100290.56;5231820;28;20048;-49
2023/12/24 03:20:45;;;;;;;0.35;0.32;;;;;;;10.88;100.00;100278.34;5240930;28;20525;-49
2023/12/24 03:23:19;;;;;;;0.40;0.40;;;;;;;10.86;100.00;100274.81;5234355;28;20504;-48
2023/12/24 03:25:52;;;;;;;0.22;0.22;;;;;;;10.85;100.00;100267.84;5241908;28;20044;-50
2023/12/24 03:28:25;;;;;;;0.22;0.22;;;;;;;10.85;100.00;100268.72;5224975;28;20049;-49
2023/12/24 03:30:57;;;;;;;0.57;0.25;;;;;;;10.86;100.00;100274.81;5226609;28;20036;-48
2023/12/24 03:33:30;;;;;;;0.20;0.20;;;;;;;10.85;100.00;100266.13;5228524;28;20055;-49
2023/12/24 03:36:03;;;;;;;0.15;0.15;;;;;;;10.84;100.00;100255.66;5226466;28;20507;-48
2023/12/24 03:38:37;;;;;;;0.10;0.10;;;;;;;10.81;100.00;100258.16;5224308;28;20720;-48
2023/12/24 03:41:10;;;;;;;0.10;0.10;;;;;;;10.80;100.00;100254.69;5228177;28;20576;-49
2023/12/24 03:43:42;;;;;;;0.20;0.20;;;;;;;10.80;100.00;100248.59;5220185;28;20060;-49
2023/12/24 03:46:19;;;;;;;0.50;0.50;;;;;;;10.81;100.00;100250.34;5235985;28;20082;-50
2023/12/24 03:48:51;;;;;;;0.22;0.22;;;;;;;10.81;100.00;100258.16;5233284;28;20048;-49
2023/12/24 03:51:25;;;;;;;0.52;0.30;;;;;;;10.79;100.00;100254.66;5220814;28;20097;-48
2023/12/24 03:53:59;;;;;;;0.30;0.30;;;;;;;10.80;100.00;100253.81;5235494;28;20039;-48
2023/12/24 03:56:31;;;;;;;0.20;0.20;;;;;;;10.80;100.00;100248.59;5237083;28;20406;-48
2023/12/24 03:59:04;;;;;;;0.22;0.22;;;;;;;10.79;100.00;100247.72;5229309;28;20052;-48
2023/12/24 04:01:37;;;;;;;0.22;0.22;;;;;;;10.78;100.00;100245.06;5235707;28;20060;-49
2023/12/24 04:04:09;;;;;;;0.15;0.15;;;;;;;10.76;100.00;100241.56;5234380;28;20055;-48
2023/12/24 04:06:43;;;;;;;0.13;0.13;;;;;;;10.75;100.00;100242.38;5217519;28;20045;-49
2023/12/24 04:09:17;;;;;;;0.20;0.20;;;;;;;10.71;100.00;100217.97;5230599;28;20047;-49
2023/12/24 04:11:50;;;;;;;0.25;0.25;;;;;;;10.72;100.00;100229.28;5227900;28;20049;-49
2023/12/24 04:14:23;;;;;;;0.43;0.20;;;;;;;10.70;100.00;100233.56;5223421;28;20454;-48
2023/12/24 04:16:56;;;;;;;0.13;0.13;;;;;;;10.69;100.00;100239.59;5222162;28;20048;-48
2023/12/24 04:19:29;;;;;;;0.55;0.30;;;;;;;10.67;100.00;100236.97;5228364;28;20040;-49
2023/12/24 04:22:02;;;;;;;0.22;0.22;;;;;;;10.66;100.00;100231.72;5224826;28;20041;-48
2023/12/24 04:24:37;;;;;;;0.45;0.20;;;;;;;10.66;100.00;100231.72;5250867;28;20048;-48
2023/12/24 04:27:11;;;;;;;0.20;0.20;;;;;;;10.64;100.00;100236.91;5229518;28;20040;-49
2023/12/24 04:29:44;;;;;;;0.38;0.38;;;;;;;10.64;100.00;100230.81;5223772;28;20056;-48
2023/12/24 04:32:19;;;;;;;0.43;0.30;;;;;;;10.63;100.00;100235.16;5236363;28;20101;-48
2023/12/24 04:34:51;;;;;;;0.20;0.20;;;;;;;10.63;100.00;100229.94;5218236;28;20127;-48
2023/12/24 04:37:24;;;;;;;0.30;0.30;;;;;;;10.62;100.00;100227.25;5233373;28;20041;-49
2023/12/24 04:39:58;;;;;;;0.75;0.57;;;;;;;10.62;100.00;100227.25;5217202;28;20048;-49
2023/12/24 04:42:31;;;;;;;0.20;0.20;;;;;;;10.63;100.00;100218.59;5213848;28;20044;-48
2023/12/24 04:45:04;;;;;;;0.30;0.30;;;;;;;10.62;100.00;100211.63;5225636;28;20570;-48
2023/12/24 04:47:37;;;;;;;0.22;0.20;;;;;;;10.60;100.00;100204.66;5226948;28;20041;-48
2023/12/24 04:50:11;;;;;;;0.30;0.30;;;;;;;10.60;100.00;100209.00;5219448;28;20053;-48
2023/12/24 04:52:44;;;;;;;0.30;0.30;;;;;;;10.59;100.00;100191.59;5228122;28;20507;-48
2023/12/24 04:55:19;;;;;;;0.28;0.28;;;;;;;10.59;100.00;100192.47;5240194;28;20043;-49
2023/12/24 04:57:52;;;;;;;;;;;;;;;10.59;100.00;100192.47;5227135;28;20519;-48
2023/12/24 05:00:25;;;;;;;0.20;0.20;;;;;;;10.58;100.00;100185.50;5232847;28;19925;-48
2023/12/24 05:02:58;;;;;;;0.50;0.22;;;;;;;10.58;100.00;100182.91;5235393;28;20045;-49
2023/12/24 05:05:31;;;;;;;0.20;0.20;;;;;;;10.58;100.00;100184.63;5220633;28;20629;-48
2023/12/24 05:08:04;;;;;;;0.10;0.10;;;;;;;10.57;100.00;100188.97;5217441;28;20048;-49
2023/12/24 05:10:38;;;;;;;0.38;0.38;;;;;;;10.58;100.00;100189.84;5225917;28;20048;-49
2023/12/24 05:13:12;;;;;;;0.20;0.20;;;;;;;10.59;100.00;100196.81;5229112;28;20056;-48
2023/12/24 05:15:45;;;;;;;0.38;0.38;;;;;;;10.60;100.00;100186.41;5223637;28;20193;-50
2023/12/24 05:18:19;;;;;;;0.13;0.13;;;;;;;10.59;100.00;100187.25;5229672;28;20047;-48
2023/12/24 05:20:52;;;;;;;0.20;0.20;;;;;;;10.59;100.00;100192.47;5223416;28;20051;-50
2023/12/24 05:23:26;;;;;;;0.20;0.20;;;;;;;10.57;100.00;100177.66;5226541;28;21898;-49
2023/12/24 05:26:00;;;;;;;0.50;0.50;;;;;;;10.57;100.00;100178.53;5232623;28;20056;-49
2023/12/24 05:28:33;;;;;;;0.52;0.22;;;;;;;10.56;100.00;100176.78;5235580;28;20071;-49
2023/12/24 05:31:05;;;;;;;0.28;0.25;;;;;;;10.55;100.00;100180.19;5231154;28;20055;-49
2023/12/24 05:33:38;;;;;;;0.55;0.20;;;;;;;10.56;100.00;100187.19;5212252;28;20052;-48
2023/12/24 05:36:14;;;;;;;0.15;0.15;;;;;;;10.55;100.00;100179.31;5227231;28;20044;-48
2023/12/24 05:38:46;;;;;;;1.05;0.20;;;;;;;10.55;100.00;100182.81;5233266;28;20089;-48
2023/12/24 05:41:20;;;;;;;0.22;0.22;;;;;;;10.56;100.00;100175.88;5223331;28;20040;-48
2023/12/24 05:43:53;;;;;;;0.40;0.40;;;;;;;10.56;100.00;100184.59;5229973;28;20522;-48
2023/12/24 05:46:26;;;;;;;0.20;0.20;;;;;;;10.55;100.00;100192.34;5222238;28;20507;-48
2023/12/24 05:48:58;;;;;;;0.50;0.50;;;;;;;10.53;100.00;100171.47;5224925;28;20147;-47
2023/12/24 05:51:31;;;;;;;0.13;0.13;;;;;;;10.54;100.00;100183.66;5237828;28;20040;-48
2023/12/24 05:54:03;;;;;;;0.22;0.22;;;;;;;10.55;100.00;100174.97;5223925;28;20053;-49
2023/12/24 05:56:38;;;;;;;0.13;0.13;;;;;;;10.55;100.00;100176.72;5236537;28;20036;-49
2023/12/24 05:59:10;;;;;;;0.20;0.20;;;;;;;10.54;100.00;100177.56;5224411;28;20047;-48
2023/12/24 06:01:44;;;;;;;0.08;0.08;;;;;;;10.55;100.00;100181.94;5221544;28;20078;-48
2023/12/24 06:04:16;;;;;;;0.32;0.15;;;;;;;10.56;100.00;100182.00;5226710;28;20052;-48
2023/12/24 06:06:49;;;;;;;0.20;0.20;;;;;;;10.55;100.00;100177.59;5224069;28;20075;-49
2023/12/24 06:09:22;;;;;;;0.13;0.13;;;;;;;10.57;100.00;100167.22;5231195;28;20523;-48
2023/12/24 06:11:56;;;;;;;0.20;0.20;;;;;;;10.57;100.00;100172.44;5228744;28;20052;-47
2023/12/24 06:14:28;;;;;;;0.10;0.10;;;;;;;10.59;100.00;100176.84;5221387;28;20044;-49
2023/12/24 06:17:00;;;;;;;0.22;0.22;;;;;;;10.59;100.00;100174.22;5220698;28;20123;-49
2023/12/24 06:19:33;;;;;;;0.13;0.13;;;;;;;10.60;100.00;100168.16;5224900;28;20048;-48
2023/12/24 06:22:06;;;;;;;1.08;0.20;;;;;;;10.63;100.00;100174.28;5230001;28;20080;-48
2023/12/24 06:24:38;;;;;;;0.22;0.22;;;;;;;10.64;100.00;100183.91;5226880;28;20511;-49
2023/12/24 06:27:12;;;;;;;0.47;0.47;;;;;;;10.63;100.00;100177.81;5222336;28;20040;-48
2023/12/24 06:29:45;;;;;;;0.13;0.13;;;;;;;10.63;100.00;100174.28;5221266;28;20040;-48
2023/12/24 06:32:18;;;;;;;0.20;0.20;;;;;;;10.64;100.00;100178.69;5229837;28;20136;-49
2023/12/24 06:34:50;;;;;;;0.05;0.05;;;;;;;10.65;100.00;100170.03;5230791;28;20036;-49
2023/12/24 06:37:23;;;;;;;0.10;0.10;;;;;;;10.66;100.00;100174.38;5210327;28;20052;-49
2023/12/24 06:39:56;;;;;;;0.13;0.13;;;;;;;10.67;100.00;100178.75;5236323;28;20148;-48
2023/12/24 06:42:30;;;;;;;0.70;0.10;;;;;;;10.68;100.00;100176.16;5223518;28;20052;-48
2023/12/24 06:45:03;;;;;;;0.10;0.10;;;;;;;10.68;100.00;100162.25;5225753;28;20436;-49
2023/12/24 06:47:35;;;;;;;0.75;0.40;;;;;;;10.68;100.00;100170.06;5222475;28;20036;-48
2023/12/24 06:50:09;;;;;;;0.13;0.13;;;;;;;10.69;100.00;100171.84;5219971;28;20056;-48
2023/12/24 06:52:41;;;;;;;0.30;0.30;;;;;;;10.70;100.00;100169.28;5236232;28;20049;-48
2023/12/24 06:55:14;;;;;;;0.10;0.10;;;;;;;10.72;100.00;100166.72;5236261;28;20074;-49
2023/12/24 06:57:48;;;;;;;0.20;0.20;;;;;;;10.73;100.00;100168.47;5222697;28;20438;-49
2023/12/24 07:00:21;;;;;;;0.13;0.13;;;;;;;10.75;100.00;100158.94;5228337;28;20044;-50
2023/12/24 07:02:53;;;;;;;0.10;0.10;;;;;;;10.75;100.00;100170.25;5229487;28;20467;-47
2023/12/24 07:05:27;;;;;;;0.10;0.10;;;;;;;10.78;100.00;100159.91;5222187;28;20086;-50
2023/12/24 07:08:00;;;;;;;0.13;0.13;;;;;;;10.78;100.00;100164.25;5224237;28;20121;-48
2023/12/24 07:10:33;;;;;;;0.20;0.20;;;;;;;10.79;100.00;100158.19;5227161;28;20423;-49
2023/12/24 07:13:07;;;;;;;0.80;0.30;;;;;;;10.80;100.00;100157.34;5227567;28;20059;-49
2023/12/24 07:15:39;;;;;;;0.22;0.22;;;;;;;10.81;100.00;100151.28;5229221;28;20045;-48
2023/12/24 07:18:12;;;;;;;0.10;0.10;;;;;;;10.84;100.00;100148.75;5224204;28;20419;-49
2023/12/24 07:20:45;;;;;;;0.10;0.10;;;;;;;10.85;100.00;100158.34;5219729;28;20067;-48
2023/12/24 07:23:17;;;;;;;0.60;0.22;;;;;;;10.85;100.00;100147.91;5216495;28;20541;-48
2023/12/24 07:25:50;;;;;;;0.20;0.20;;;;;;;10.85;100.00;100148.78;5217729;28;20055;-49
2023/12/24 07:28:24;;;;;;;0.35;0.22;;;;;;;10.86;100.00;100160.97;5225528;28;20529;-50
2023/12/24 07:30:57;;;;;;;0.25;0.25;;;;;;;10.86;100.00;100147.94;5227455;28;20041;-49
2023/12/24 07:33:29;;;;;;;0.10;0.10;;;;;;;10.88;100.00;100153.19;5222436;28;20048;-49
2023/12/24 07:36:02;;;;;;;0.20;0.20;;;;;;;10.88;100.00;100147.97;5223506;28;20668;-49
2023/12/24 07:38:35;;;;;;;0.32;0.32;;;;;;;10.90;100.00;100154.13;5227985;28;20072;-48
2023/12/24 07:41:08;;;;;;;0.25;0.25;;;;;;;10.92;100.00;100146.31;5226931;28;20036;-48
2023/12/24 07:43:42;;;;;;;0.20;0.20;;;;;;;10.93;100.00;100155.91;5228177;28;20052;-49
2023/12/24 07:46:15;;;;;;;0.30;0.30;;;;;;;10.96;100.00;100159.47;5225592;28;20052;-49
2023/12/24 07:48:48;;;;;;;0.13;0.13;;;;;;;10.99;100.00;100154.31;5237680;28;20402;-48
2023/12/24 07:51:20;;;;;;;0.20;0.20;;;;;;;11.00;100.00;100150.84;5240788;28;20052;-49
2023/12/24 07:53:53;;;;;;;0.20;0.20;;;;;;;11.05;100.00;100153.59;5221582;28;20065;-48
2023/12/24 07:56:26;;;;;;;0.20;0.20;;;;;;;11.07;100.00;100144.94;5221361;28;20041;-48
2023/12/24 07:59:00;;;;;;;0.32;0.20;;;;;;;11.09;100.00;100145.00;5234592;28;20059;-48
2023/12/24 08:01:32;;;;;;;0.63;0.25;;;;;;;11.11;100.00;100148.50;5237466;28;20059;-49
2023/12/24 08:04:05;;;;;;;0.20;0.15;;;;;;;11.12;100.00;100148.53;5221479;28;20422;-48
2023/12/24 08:06:38;;;;;;;0.20;0.20;;;;;;;11.17;100.00;100145.16;5219801;28;20041;-48
2023/12/24 08:09:10;;;;;;;0.20;0.20;;;;;;;11.16;100.00;100132.97;5228775;28;20043;-48
2023/12/24 08:11:43;;;;;;;0.32;0.30;;;;;;;11.18;100.00;100141.69;5225398;28;20424;-48
2023/12/24 08:14:17;;;;;;;0.77;0.30;;;;;;;11.19;100.00;100144.34;5208691;28;20051;-49
2023/12/24 08:16:50;;;;;;;0.35;0.20;;;;;;;11.19;100.00;100144.34;5237257;28;20060;-50
2023/12/24 08:19:23;;;;;;;0.10;0.10;;;;;;;11.20;100.00;100150.44;5229393;28;20047;-48
2023/12/24 08:21:55;;;;;;;0.63;0.55;;;;;;;11.19;100.00;100149.53;5226824;28;20048;-49
2023/12/24 08:24:28;;;;;;;0.30;0.30;;;;;;;11.19;100.00;100143.44;5242765;28;20068;-48
2023/12/24 08:27:02;;;;;;;0.20;0.20;;;;;;;11.19;100.00;100151.28;5237014;28;20079;-49
2023/12/24 08:29:36;;;;;;;0.35;0.30;;;;;;;11.19;100.00;100143.44;5231712;28;20075;-49
2023/12/24 08:32:09;;;;;;;0.90;0.45;;;;;;;11.42;100.00;100157.88;5247497;28;20052;-49
2023/12/24 08:34:42;;;;;;;0.50;0.32;;;;;;;11.54;100.00;100149.41;5240040;28;20089;-49
2023/12/24 08:37:14;;;;;;;1.13;0.70;;;;;;;11.69;100.00;100137.56;5236754;28;20047;-47
2023/12/24 08:39:47;;;;;;;0.73;0.30;;;;;;;11.93;100.00;100138.91;5239928;28;20051;-48
2023/12/24 08:42:20;;;;;;;0.50;0.30;;;;;;;12.03;100.00;100153.03;5239014;28;20044;-48
2023/12/24 08:44:54;;;;;;;0.22;0.22;;;;;;;11.98;100.00;100147.72;5233764;28;20059;-48
2023/12/24 08:47:26;;;;;;;0.22;0.20;;;;;;;11.89;100.00;100151.03;5238813;28;20048;-48
2023/12/24 08:49:59;;;;;;;0.15;0.15;;;;;;;11.82;100.00;100145.69;5235865;28;20538;-48
2023/12/24 08:52:32;;;;;;;0.32;0.32;;;;;;;11.76;100.00;100145.53;5237699;28;20063;-48
2023/12/24 08:55:06;;;;;;;0.65;0.30;;;;;;;11.92;100.00;100139.75;5231828;28;20422;-46
2023/12/24 08:57:38;;;;;;;0.30;0.30;;;;;;;12.09;100.00;100146.19;5232401;28;20142;-48
2023/12/24 09:00:14;;;;;;;0.57;0.20;;;;;;;12.07;100.00;100149.63;5235311;28;20137;-50
2023/12/24 09:02:46;;;;;;;0.45;0.45;;;;;;;12.04;100.00;100160.00;5244365;28;20391;-48
2023/12/24 09:05:19;;;;;;;0.50;0.10;;;;;;;12.04;100.00;100154.78;5243386;28;20481;-48
2023/12/24 09:07:52;;;;;;;0.28;0.28;;;;;;;12.00;100.00;100158.19;5241781;28;20048;-49
2023/12/24 09:10:24;;;;;;;0.30;0.30;;;;;;;11.93;100.00;100146.72;5242983;28;20511;-49
2023/12/24 09:12:57;;;;;;;0.47;0.30;;;;;;;11.87;100.00;100149.25;5243465;28;20461;-49
2023/12/24 09:15:31;;;;;;;0.25;0.25;;;;;;;11.82;100.00;100149.16;5244531;28;20052;-48
2023/12/24 09:18:04;;;;;;;0.25;0.25;;;;;;;11.79;100.00;100154.28;5241377;28;20060;-48
2023/12/24 09:20:37;;;;;;;0.40;0.40;;;;;;;11.78;100.00;100149.03;5238504;28;20056;-48
2023/12/24 09:23:09;;;;;;;15.93;1.42;;;11.70;99.90;;;11.90;100.00;100157.13;5246216;28;20048;-45
2023/12/24 09:25:58;;;;;;;0.90;0.35;;;12.00;99.90;;;11.84;100.00;100149.19;5304425;27;20117;-48
2023/12/24 09:28:31;;;;;;;0.22;0.22;;;11.90;99.90;;;11.81;100.00;100156.97;5228706;27;20066;-48
2023/12/24 09:31:03;;;;;;;0.63;0.20;;;11.80;99.90;;;11.79;100.00;100153.41;5257662;28;20079;-48
2023/12/24 09:33:36;;;;;;;0.30;0.30;;;11.80;99.90;;;11.78;100.00;100149.91;5253793;28;20059;-49
2023/12/24 09:36:09;;;;;;;0.30;0.30;;;11.80;99.90;;;11.76;100.00;100142.91;5254930;28;20056;-50
2023/12/24 09:38:41;;;;;;;0.13;0.13;;;11.80;99.90;;;11.76;100.00;100153.34;5257313;28;20048;-48
2023/12/24 09:41:19;;;;;;;0.90;0.30;;;11.70;99.90;;;11.75;100.00;100152.47;5252622;28;20055;-49
2023/12/24 09:43:51;;;;;;;0.22;0.22;;;11.70;99.90;;;11.77;100.00;100165.56;5251361;28;20499;-48
2023/12/24 09:46:24;;;;;;;0.30;0.30;;;11.70;99.90;;;11.76;100.00;100159.44;5248648;28;20057;-48
2023/12/24 09:48:57;;;;;;;1.08;0.20;;;11.70;99.90;;;11.76;100.00;100153.34;5254350;28;20048;-49
2023/12/24 09:51:30;;;;;;;0.35;0.35;;;11.70;99.90;;;11.75;100.00;100156.81;5254287;28;20048;-48
2023/12/24 09:54:04;;;;;;;0.20;0.20;;;11.70;99.90;;;11.78;100.00;100159.47;5253933;28;20048;-48
2023/12/24 09:56:38;;;;;;;1.25;0.22;;;11.70;99.90;;;11.77;100.00;100144.66;5254303;28;20047;-44
2023/12/24 09:59:10;;;;;;;0.25;0.25;;;11.70;99.90;;;11.87;100.00;100150.13;5251865;28;20052;-47
2023/12/24 10:01:46;;;;;;;0.20;0.20;;;11.80;99.90;;;11.91;100.00;100164.13;5246963;28;20139;-48
2023/12/24 10:04:19;;;;;;;0.13;0.13;;;11.80;99.90;;;11.89;100.00;100160.59;5249873;28;20052;-48
2023/12/24 10:06:56;;;;;;;0.22;0.22;;;11.80;99.90;;;11.88;100.00;100167.56;5251867;28;20044;-48
2023/12/24 10:09:45;;;;;;;0.25;0.25;;;11.80;99.90;;;11.90;100.00;100162.38;5251184;28;20163;-48
2023/12/24 10:12:19;;;;;;;0.30;0.30;;;11.80;99.90;;;11.92;100.00;100160.66;5256544;28;20040;-48
2023/12/24 10:14:55;;;;;;;;;;;11.80;99.90;;;11.89;100.00;100158.00;5251342;28;20055;-48
2023/12/24 10:17:32;;;;;;;0.13;0.13;;;11.80;99.90;;;11.88;100.00;100159.72;5247538;28;20011;-48
2023/12/24 10:20:08;;;;;;;0.22;0.22;;;11.80;99.90;;;11.88;100.00;100153.63;5255660;28;20056;-48
2023/12/24 10:22:41;;;;;;;0.98;0.22;;;11.80;99.90;;;11.89;100.00;100151.03;5250259;28;20059;-48
2023/12/24 10:25:17;;;;;;;0.22;0.22;;;11.80;99.90;;;11.91;100.00;100148.44;5256995;28;20067;-48
2023/12/24 10:27:51;;;;;;;0.30;0.30;;;11.80;99.90;;;11.93;100.00;100149.34;5248581;28;20052;-48
2023/12/24 10:30:23;;;;;;;0.30;0.30;;;11.80;99.90;;;11.92;100.00;100144.97;5255308;28;20108;-47
2023/12/24 10:33:09;;;;;;;0.63;0.22;;;11.80;99.90;;;11.95;100.00;100139.84;5258367;28;20417;-47
2023/12/24 10:35:41;;;;;;;0.35;0.35;;;11.90;99.90;;;11.94;100.00;100138.06;5259239;28;20747;-49
2023/12/24 10:38:15;;;;;;;0.20;0.20;;;11.90;99.90;;;11.96;100.00;100146.81;5242377;28;20040;-48
2023/12/24 10:40:47;;;;;;;0.35;0.30;;;11.90;99.90;;;11.97;100.00;100147.69;5236473;28;20045;-48
2023/12/24 10:43:21;;;;;;;0.52;0.52;;;11.90;99.90;;;11.99;100.00;100148.59;5232529;28;20056;-48
2023/12/24 10:45:53;;;;;;;0.22;0.22;;;11.90;99.90;;;11.98;100.00;100155.53;5245280;28;20059;-48
2023/12/24 10:48:26;;;;;;;0.15;0.15;;;11.90;99.90;;;11.99;100.00;100141.63;5245470;28;20493;-47
2023/12/24 10:50:58;;;;;;;0.22;0.22;;;11.90;99.90;;;12.02;100.00;100133.88;5243734;28;20052;-49
2023/12/24 10:53:31;;;;;;;0.70;0.30;;;11.90;99.90;;;12.02;100.00;100123.41;5238297;28;20407;-48
2023/12/24 10:56:04;;;;;;;0.30;0.30;;;11.90;99.90;;;12.01;100.00;100110.34;5243855;28;20048;-48
2023/12/24 10:58:52;;;;;;;0.25;0.25;;;12.00;99.90;;;12.04;100.00;100113.88;5233434;28;20048;-49
2023/12/24 11:01:24;;;;;;;0.22;0.22;;;11.90;99.90;;;12.04;100.00;100126.94;5237613;28;20163;-49
2023/12/24 11:03:58;;;;;;;0.25;0.25;;;11.90;99.90;;;12.06;100.00;100111.28;5241300;28;20161;-48
2023/12/24 11:06:47;;;;;;;0.22;0.22;;;12.00;99.90;;;12.07;100.00;100115.69;5232673;28;20415;-48
2023/12/24 11:09:47;;;;;;;0.32;0.30;;;12.00;99.90;;;12.08;100.00;100110.47;5235920;28;20052;-48
2023/12/24 11:12:33;;;;;;;0.30;0.30;;;12.00;99.90;;;12.08;100.00;100114.81;5236686;28;20541;-48
2023/12/24 11:15:10;;;;;;;0.20;0.20;;;12.00;99.90;;;12.08;100.00;100105.25;5237907;28;20415;-49
2023/12/24 11:17:51;;;;;;;0.20;0.20;;;12.00;99.90;;;12.09;100.00;100107.00;5232800;28;20045;-49
2023/12/24 11:20:31;;;;;;;1.00;0.30;;;12.00;99.90;;;12.09;100.00;100107.00;5235048;28;20418;-49
2023/12/24 11:23:17;;;;;;;1.00;0.38;;;12.00;99.90;;;12.09;100.00;100112.22;5241648;28;20098;-48
2023/12/24 11:25:50;;;;;;;0.43;0.40;;;12.00;99.90;;;12.10;100.00;100106.13;5246983;28;20638;-48
2023/12/24 11:28:38;;;;;;;0.45;0.43;;;12.00;99.90;;;12.12;100.00;100107.03;5238598;28;20076;-48
2023/12/24 11:31:12;;;;;;;0.17;0.15;;;12.00;99.90;;;12.12;100.00;100107.03;5239267;28;20045;-48